Terminal Aerodrome Forecast
Issued by NWS

Home | Current Version | Previous Version | Text Only | Print | Product List | Glossary On
Versions: 1 2 3 4 5 6 7 8 9 10 11 12 13 14 15 16 17 18
000
FTUS43 KIWX 172334
TAFSBN
TAF
KSBN 172334Z 1800/1824 26010KT 2SM BR OVC003
      TEMPO 1803/1807 1SM -SHRA BR OVC002
     FM181600 26007KT P6SM OVC010=

USA.gov is the U.S. government's official web portal to all federal, state and local government web resources and services.